Rush, New York
Current Conditions -  °F | °C
As of 12:54 AM on Saturday 29 Nov 2014 (Local Time) from KROC Reporting Station
Overcast Overcast  
Wind Chill: 21°   Ceiling: 3400
Heat Index: 26°   Visibility: 10mi
Dew Point: 18°   Wind: 5mph
Humidity: 71%   Direction: 170°S
Pressure: 30.21"   Gusts: NA
Location:  43°N, 77.65°W
Report Text: KROC 290554Z 17004KT 10SM FEW026 OVC034 M03/M08 A3021 RMK AO2 SLP241 4/001 T10331078 11033 21044 55001
Loading
Personal Weather Stations






























Interactive Weather Map New forecast layout! Learn more

10-Day Weather Forecast

Advertisements
Track Severe Weather on mobile